Time;durP1;ratioP1;P1;durP2;ratioP2;P2;SDS_P1;SDS_P2;PMS_P1;PMS_P2;Temp;Humidity;BMP_temperature;BMP_pressure;BME280_temperature;BME280_humidity;BME280_pressure;Samples;Min_cycle;Max_cycle;Signal;HPM_P1;HPM_P2
2022/06/19 00:01:59;;;;;;;8.95;5.15;;;;;;;19.58;70.39;100557.81;5074405;28;20052;-76
2022/06/19 00:04:29;;;;;;;7.35;5.00;;;;;;;19.66;69.84;100556.13;5074957;28;20056;-76
2022/06/19 00:06:57;;;;;;;9.82;5.32;;;;;;;19.61;69.66;100554.84;5075010;28;20052;-77
2022/06/19 00:09:26;;;;;;;6.72;5.15;;;;;;;19.61;69.18;100552.16;5074292;28;20489;-76
2022/06/19 00:11:55;;;;;;;9.38;5.50;;;;;;;19.68;68.30;100561.38;5074133;28;20079;-76
2022/06/19 00:14:25;;;;;;;7.55;5.28;;;;;;;19.52;69.33;100553.81;5074589;28;20072;-76
2022/06/19 00:16:53;;;;;;;11.98;5.68;;;;;;;19.37;71.40;100556.09;5074140;28;20048;-77
2022/06/19 00:19:21;;;;;;;10.70;5.65;;;;;;;19.34;71.13;100556.38;5074074;28;20056;-83
2022/06/19 00:21:51;;;;;;;7.28;5.32;;;;;;;19.20;72.64;100547.81;5075123;28;20044;-84
2022/06/19 00:24:19;;;;;;;11.02;5.25;;;;;;;19.23;72.58;100543.00;5074892;28;20044;-84
2022/06/19 00:26:47;;;;;;;10.43;5.68;;;;;;;19.28;71.58;100546.13;5074680;28;20036;-82
2022/06/19 00:29:16;;;;;;;10.07;5.22;;;;;;;19.48;71.03;100541.56;5073299;28;20140;-82
2022/06/19 00:31:44;;;;;;;7.65;5.38;;;;;;;19.37;71.95;100547.97;5084555;28;20111;-82
2022/06/19 00:34:12;;;;;;;9.52;5.68;;;;;;;19.22;73.63;100540.44;5097990;28;20033;-83
2022/06/19 00:36:40;;;;;;;9.45;5.97;;;;;;;19.25;72.59;100541.00;5082575;28;20041;-82
2022/06/19 00:39:10;;;;;;;10.38;5.88;;;;;;;19.20;73.23;100542.41;5074141;28;20505;-83
2022/06/19 00:41:40;;;;;;;11.00;5.75;;;;;;;19.25;72.32;100538.28;5074409;28;20090;-81
2022/06/19 00:44:11;;;;;;;10.18;5.80;;;;;;;19.36;70.55;100530.03;5074082;28;20128;-81
2022/06/19 00:46:47;;;;;;;10.40;5.28;;;;;;;19.39;69.48;100537.00;5074430;28;20094;-81
2022/06/19 00:49:18;;;;;;;9.73;5.35;;;;;;;19.38;69.71;100530.75;5073983;28;20036;-82
2022/06/19 00:51:50;;;;;;;7.43;5.22;;;;;;;19.52;68.55;100525.91;5072436;28;20049;-82
2022/06/19 00:54:22;;;;;;;8.87;6.17;;;;;;;19.44;69.11;100530.19;5074407;28;20045;-82
2022/06/19 00:56:50;;;;;;;12.00;6.15;;;;;;;19.49;68.41;100532.44;5072566;28;20049;-82
2022/06/19 00:59:19;;;;;;;11.85;6.15;;;;;;;19.30;69.53;100529.75;5073770;28;20052;-82
2022/06/19 01:01:48;;;;;;;9.45;7.70;;;;;;;19.34;69.64;100523.91;5073288;28;20509;-83
2022/06/19 01:04:23;;;;;;;9.95;6.95;;;;;;;19.29;70.16;100522.63;5073775;28;20091;-82
2022/06/19 01:06:51;;;;;;;12.13;7.28;;;;;;;19.13;70.97;100520.50;5073671;28;20500;-83
2022/06/19 01:09:21;;;;;;;12.43;8.63;;;;;;;19.08;71.29;100534.41;5073463;28;20059;-82
2022/06/19 01:11:49;;;;;;;11.25;8.10;;;;;;;19.00;71.91;100528.00;5073560;28;20124;-83
2022/06/19 01:14:21;;;;;;;10.25;7.70;;;;;;;18.95;72.69;100516.78;5073587;28;20047;-78
2022/06/19 01:16:50;;;;;;;12.13;7.60;;;;;;;18.92;74.08;100519.75;5073079;28;20040;-78
2022/06/19 01:19:24;;;;;;;12.95;8.40;;;;;;;19.00;72.86;100522.59;5073055;28;20043;-79
2022/06/19 01:22:01;;;;;;;12.18;8.50;;;;;;;19.02;72.48;100521.47;5073411;28;20401;-78
2022/06/19 01:24:41;;;;;;;9.10;6.75;;;;;;;18.87;72.98;100518.31;5073265;28;20119;-80
2022/06/19 01:28:45;;;;;;;10.85;6.88;;;;;;;18.99;72.22;100515.47;5071946;28;20143;-77
2022/06/19 01:30:05;;;;;;;10.73;7.15;;;;;;;19.01;71.81;100518.88;5073567;28;20040;-76
2022/06/19 01:32:36;;;;;;;9.43;6.68;;;;;;;18.93;72.25;100519.63;5073447;28;20068;-77
2022/06/19 01:35:07;;;;;;;7.68;4.78;;;;;;;18.91;71.60;100520.72;5072006;28;20516;-78
2022/06/19 01:37:37;;;;;;;7.60;4.90;;;;;;;18.90;71.56;100521.72;5073412;28;20044;-78
2022/06/19 01:40:13;;;;;;;7.68;5.10;;;;;;;18.78;72.27;100521.84;5073341;28;20520;-78
2022/06/19 01:42:42;;;;;;;6.57;4.88;;;;;;;18.72;72.44;100521.53;5073041;28;20068;-78
2022/06/19 01:45:12;;;;;;;9.02;4.97;;;;;;;18.57;73.32;100511.09;5073818;28;20490;-79
2022/06/19 01:47:41;;;;;;;10.02;5.50;;;;;;;18.52;74.00;100515.19;5073807;28;20052;-76
2022/06/19 01:50:17;;;;;;;9.20;5.45;;;;;;;18.52;74.02;100517.88;5074591;28;20064;-77
2022/06/19 01:52:47;;;;;;;8.02;5.18;;;;;;;18.54;73.49;100513.22;5073958;28;20474;-78
2022/06/19 01:55:18;;;;;;;8.52;5.20;;;;;;;18.63;73.11;100506.16;5073406;28;20068;-78
2022/06/19 01:57:51;;;;;;;8.23;5.55;;;;;;;18.59;73.20;100519.06;5072685;28;20378;-77
2022/06/19 02:00:23;;;;;;;8.23;6.13;;;;;;;18.45;74.18;100508.63;5073117;28;20124;-77
2022/06/19 02:03:01;;;;;;;10.52;6.63;;;;;;;18.44;74.59;100515.03;5073044;28;20090;-78
2022/06/19 02:05:29;;;;;;;10.05;6.65;;;;;;;18.39;75.03;100510.03;5077050;28;20056;-76
2022/06/19 02:07:58;;;;;;;9.52;6.43;;;;;;;18.44;75.03;100501.53;5077044;28;20040;-76
2022/06/19 02:10:27;;;;;;;10.35;6.63;;;;;;;18.41;74.97;100502.63;5076666;28;20127;-75
2022/06/19 02:12:57;;;;;;;10.95;5.97;;;;;;;18.35;75.38;100499.66;5076409;28;20052;-76
2022/06/19 02:15:26;;;;;;;9.57;6.00;;;;;;;18.37;75.03;100494.97;5076790;28;20440;-81
2022/06/19 02:17:54;;;;;;;8.63;5.90;;;;;;;18.33;75.30;100498.91;5076300;28;20044;-80
2022/06/19 02:20:23;;;;;;;9.73;6.28;;;;;;;18.21;75.59;100496.31;5076983;28;20052;-80
2022/06/19 02:22:51;;;;;;;8.70;6.00;;;;;;;18.24;76.10;100495.19;5076342;28;20405;-80
2022/06/19 02:25:19;;;;;;;9.32;5.70;;;;;;;18.26;76.13;100494.06;5076748;28;20036;-80
2022/06/19 02:27:49;;;;;;;7.65;5.55;;;;;;;18.25;76.81;100495.06;5076794;28;20045;-80
2022/06/19 02:30:19;;;;;;;7.95;5.40;;;;;;;18.22;77.77;100498.00;5076841;28;20052;-76
2022/06/19 02:32:51;;;;;;;7.97;5.18;;;;;;;18.11;78.43;100503.50;5075669;28;20397;-76
2022/06/19 02:35:22;;;;;;;6.27;4.70;;;;;;;18.03;80.33;100503.31;5076790;28;20046;-76
2022/06/19 02:37:53;;;;;;;9.93;5.32;;;;;;;18.06;81.30;100499.50;5076282;28;20068;-76
2022/06/19 02:40:35;;;;;;;10.65;5.70;;;;;;;18.01;84.01;100508.00;5076912;28;20083;-75
2022/06/19 02:43:11;;;;;;;9.20;5.40;;;;;;;17.95;84.38;100505.81;5076319;28;20040;-76
2022/06/19 02:45:42;;;;;;;8.93;5.30;;;;;;;17.92;85.63;100503.41;5076251;28;20047;-76
2022/06/19 02:48:20;;;;;;;6.78;5.18;;;;;;;17.93;86.54;100497.88;5076108;28;20036;-76
2022/06/19 02:50:50;;;;;;;10.52;5.70;;;;;;;17.83;88.63;100496.94;5076326;28;20473;-76
2022/06/19 02:53:18;;;;;;;9.57;5.55;;;;;;;17.78;91.07;100492.97;5076211;28;20037;-77
2022/06/19 02:55:47;;;;;;;10.07;5.63;;;;;;;17.73;91.41;100491.50;5076160;28;20045;-77
2022/06/19 02:58:18;;;;;;;9.15;5.50;;;;;;;17.73;91.57;100485.25;5075623;28;20494;-77
2022/06/19 03:00:49;;;;;;;8.63;5.32;;;;;;;17.80;91.27;100490.97;5076202;28;20449;-77
2022/06/19 03:03:23;;;;;;;7.47;5.88;;;;;;;17.80;90.27;100485.59;5075920;28;20045;-76
2022/06/19 03:05:52;;;;;;;8.93;5.47;;;;;;;17.84;92.21;100482.47;5076164;28;20051;-77
2022/06/19 03:08:20;;;;;;;9.70;5.45;;;;;;;17.90;91.29;100489.19;5074798;28;20048;-76
2022/06/19 03:10:48;;;;;;;10.00;5.78;;;;;;;17.91;88.84;100488.19;5075942;28;20401;-77
2022/06/19 03:13:19;;;;;;;12.77;6.10;;;;;;;17.97;89.99;100487.69;5075404;28;20047;-77
2022/06/19 03:15:58;;;;;;;9.88;5.05;;;;;;;18.03;89.68;100477.19;5075996;28;20044;-76
2022/06/19 03:18:27;;;;;;;9.63;5.05;;;;;;;18.13;88.89;100482.63;5075882;28;20478;-76
2022/06/19 03:20:55;;;;;;;7.15;5.07;;;;;;;18.17;88.46;100478.69;5075136;28;20463;-81
2022/06/19 03:23:23;;;;;;;6.90;5.05;;;;;;;18.27;87.37;100476.03;5074658;28;20052;-77
2022/06/19 03:25:51;;;;;;;9.73;5.63;;;;;;;18.34;86.15;100473.63;5075632;28;20393;-78
2022/06/19 03:28:20;;;;;;;9.10;5.43;;;;;;;18.54;84.14;100472.72;5074122;28;20057;-78
2022/06/19 03:30:55;;;;;;;8.60;5.07;;;;;;;18.87;81.11;100461.56;5075625;28;20044;-78
2022/06/19 03:33:23;;;;;;;9.02;5.47;;;;;;;19.43;75.75;100468.97;5075696;28;20043;-80
2022/06/19 03:35:53;;;;;;;9.68;5.15;;;;;;;19.83;73.70;100465.22;5075221;28;20067;-80
2022/06/19 03:38:21;;;;;;;9.45;5.40;;;;;;;20.66;68.32;100465.34;5075459;28;20094;-80
2022/06/19 03:40:49;;;;;;;8.63;5.10;;;;;;;21.19;65.45;100470.78;5075147;28;20041;-81
2022/06/19 03:43:17;;;;;;;10.18;4.80;;;;;;;21.78;62.81;100474.69;5075108;28;20036;-78
2022/06/19 03:45:45;;;;;;;7.80;4.93;;;;;;;22.56;59.15;100474.63;5075219;28;20044;-79
2022/06/19 03:48:15;;;;;;;8.52;4.72;;;;;;;23.03;57.24;100466.81;5075038;28;20505;-79
2022/06/19 03:50:44;;;;;;;8.20;4.63;;;;;;;23.15;56.29;100470.03;5074854;28;20091;-80
2022/06/19 03:53:12;;;;;;;9.05;5.35;;;;;;;23.47;54.94;100471.97;5074909;28;20453;-80
2022/06/19 03:55:40;;;;;;;8.23;5.00;;;;;;;23.70;54.25;100475.72;5075248;28;20043;-80
2022/06/19 03:58:08;;;;;;;9.95;5.53;;;;;;;24.63;51.03;100466.09;5074824;28;20040;-80
2022/06/19 04:00:36;;;;;;;8.07;5.10;;;;;;;24.73;50.58;100472.19;5075089;28;20040;-79
2022/06/19 04:03:05;;;;;;;8.75;4.85;;;;;;;24.80;50.44;100475.88;5079572;28;20127;-78
2022/06/19 04:05:34;;;;;;;9.40;5.13;;;;;;;25.39;48.39;100470.75;5088700;28;20098;-79
2022/06/19 04:08:03;;;;;;;7.70;4.70;;;;;;;24.98;49.13;100456.50;5077516;28;20595;-78
2022/06/19 04:10:32;;;;;;;7.05;5.13;;;;;;;25.62;48.12;100470.72;5075236;28;20431;-77
2022/06/19 04:13:00;;;;;;;7.13;5.40;;;;;;;26.35;45.74;100463.69;5074560;28;20048;-77
2022/06/19 04:15:28;;;;;;;8.55;5.07;;;;;;;26.45;45.40;100462.38;5074455;28;20047;-77
2022/06/19 04:17:56;;;;;;;8.52;5.15;;;;;;;26.16;46.10;100457.75;5074586;28;20051;-77
2022/06/19 04:20:25;;;;;;;6.68;5.30;;;;;;;26.58;44.97;100456.22;5074399;28;20117;-80
2022/06/19 04:22:54;;;;;;;7.68;5.28;;;;;;;26.54;44.66;100449.47;5074649;28;20386;-78
2022/06/19 04:25:22;;;;;;;8.80;5.30;;;;;;;26.45;45.09;100445.97;5074290;28;20123;-74
2022/06/19 04:27:50;;;;;;;8.00;5.65;;;;;;;26.57;45.52;100456.41;5073943;28;20393;-80
2022/06/19 04:30:21;;;;;;;9.07;4.97;;;;;;;27.04;44.72;100455.97;5074131;28;20404;-80
2022/06/19 04:32:50;;;;;;;7.75;5.28;;;;;;;26.91;43.84;100450.28;5074267;28;20078;-81
2022/06/19 04:35:18;;;;;;;8.48;5.32;;;;;;;27.64;41.99;100447.25;5074009;28;20052;-79
2022/06/19 04:37:46;;;;;;;9.73;5.35;;;;;;;27.64;42.20;100443.66;5074301;28;20401;-80
2022/06/19 04:40:16;;;;;;;8.70;5.05;;;;;;;28.06;40.62;100444.59;5073563;28;20044;-77
2022/06/19 04:42:44;;;;;;;8.18;5.10;;;;;;;28.29;40.57;100455.34;5073897;28;20048;-77
2022/06/19 04:45:12;;;;;;;8.63;4.65;;;;;;;27.97;40.67;100454.03;5073891;28;20045;-77
2022/06/19 04:47:41;;;;;;;8.40;5.05;;;;;;;28.57;39.15;100463.47;5074035;28;20462;-77
2022/06/19 04:50:10;;;;;;;9.45;5.00;;;;;;;28.24;39.57;100464.97;5073752;28;20040;-77
2022/06/19 04:52:38;;;;;;;8.25;5.25;;;;;;;28.88;38.33;100461.06;5073923;28;20464;-76
2022/06/19 04:55:07;;;;;;;7.30;4.78;;;;;;;28.68;39.18;100454.69;5073829;28;20389;-77
2022/06/19 04:57:36;;;;;;;8.02;5.43;;;;;;;29.20;37.86;100461.38;5073731;28;20482;-76
2022/06/19 05:00:07;;;;;;;9.27;5.57;;;;;;;29.18;38.37;100469.84;5073436;28;20103;-77
2022/06/19 05:02:36;;;;;;;8.80;5.38;;;;;;;29.40;37.97;100475.16;5073602;28;20481;-76
2022/06/19 05:05:06;;;;;;;6.93;5.20;;;;;;;29.69;37.16;100473.94;5073531;28;20036;-77
2022/06/19 05:07:35;;;;;;;11.88;6.03;;;;;;;29.65;36.72;100470.78;5073707;28;20428;-77
2022/06/19 05:10:03;;;;;;;9.90;5.32;;;;;;;29.60;36.91;100474.13;5073631;28;20040;-77
2022/06/19 05:12:32;;;;;;;10.52;5.50;;;;;;;29.98;36.40;100476.22;5073607;28;20083;-76
2022/06/19 05:15:02;;;;;;;8.27;5.57;;;;;;;29.97;36.42;100481.94;5073352;28;20070;-77
2022/06/19 05:17:30;;;;;;;10.57;5.95;;;;;;;29.93;36.40;100484.28;5073639;28;20090;-78
2022/06/19 05:19:58;;;;;;;9.25;5.93;;;;;;;29.99;36.85;100482.56;5073414;28;20056;-77
2022/06/19 05:22:27;;;;;;;8.98;6.13;;;;;;;30.12;36.46;100491.72;5073484;28;20060;-77
2022/06/19 05:24:55;;;;;;;8.50;5.55;;;;;;;30.40;35.40;100487.81;5073426;28;20044;-77
2022/06/19 05:27:23;;;;;;;8.55;5.63;;;;;;;30.64;34.93;100489.88;5072933;28;20130;-77
2022/06/19 05:29:51;;;;;;;9.32;5.85;;;;;;;30.61;34.55;100482.03;5072986;28;20041;-77
2022/06/19 05:32:21;;;;;;;9.55;5.85;;;;;;;31.13;34.67;100477.34;5072713;28;20053;-76
2022/06/19 05:34:50;;;;;;;15.63;5.95;;;;;;;31.25;34.07;100475.59;5073394;28;20397;-77
2022/06/19 05:37:18;;;;;;;9.40;6.28;;;;;;;31.36;33.90;100470.44;5072887;28;20048;-76
2022/06/19 05:39:47;;;;;;;7.68;5.55;;;;;;;31.40;33.61;100471.72;5072156;28;20048;-78
2022/06/19 05:42:21;;;;;;;9.45;5.97;;;;;;;32.20;32.36;100478.22;5073112;28;20041;-77
2022/06/19 05:44:50;;;;;;;8.25;5.65;;;;;;;31.96;33.14;100479.13;5072280;28;20052;-74
2022/06/19 05:47:19;;;;;;;8.27;5.47;;;;;;;32.31;33.07;100480.25;5073137;28;20482;-76
2022/06/19 05:49:49;;;;;;;11.35;6.13;;;;;;;31.67;33.25;100475.09;5072951;28;20124;-77
2022/06/19 05:52:19;;;;;;;10.10;5.60;;;;;;;32.04;33.41;100487.06;5072952;28;20123;-75
2022/06/19 05:54:47;;;;;;;13.23;5.60;;;;;;;32.70;32.55;100478.09;5072526;28;20451;-76
2022/06/19 05:57:15;;;;;;;7.93;5.05;;;;;;;32.43;32.21;100478.44;5055790;28;20115;-79
2022/06/19 05:59:45;;;;;;;11.60;5.20;;;;;;;32.71;32.10;100474.25;5072963;28;20045;-77
2022/06/19 06:02:14;;;;;;;10.05;5.30;;;;;;;32.45;32.46;100481.81;5072943;28;20495;-82
2022/06/19 06:04:43;;;;;;;11.25;5.32;;;;;;;32.69;31.96;100477.25;5073128;28;20075;-82
2022/06/19 06:07:13;;;;;;;7.88;5.15;;;;;;;33.03;31.48;100473.00;5072465;28;20123;-82
2022/06/19 06:09:41;;;;;;;9.82;4.85;;;;;;;32.94;31.77;100473.56;5073287;28;20044;-80
2022/06/19 06:12:10;;;;;;;7.80;4.93;;;;;;;32.80;32.02;100472.00;5072642;28;20045;-79
2022/06/19 06:14:40;;;;;;;10.77;4.93;;;;;;;32.88;31.88;100478.09;5072899;28;20450;-80
2022/06/19 06:17:09;;;;;;;8.15;4.72;;;;;;;33.28;31.32;100477.53;5071581;28;20237;-81
2022/06/19 06:19:38;;;;;;;9.88;4.03;;;;;;;33.66;31.16;100476.31;5071375;28;20067;-81
2022/06/19 06:22:06;;;;;;;7.07;3.75;;;;;;;33.40;30.86;100478.47;5072458;28;20541;-82
2022/06/19 06:24:35;;;;;;;7.20;4.00;;;;;;;33.58;29.80;100478.34;5072850;28;20052;-80
2022/06/19 06:27:05;;;;;;;11.32;4.00;;;;;;;33.34;30.63;100479.34;5072775;28;20110;-78
2022/06/19 06:29:34;;;;;;;7.18;4.00;;;;;;;32.94;32.15;100485.47;5072830;28;20040;-79
2022/06/19 06:32:02;;;;;;;8.45;4.30;;;;;;;33.41;30.59;100480.13;5072662;28;20151;-79
2022/06/19 06:34:31;;;;;;;7.97;3.85;;;;;;;33.74;30.46;100484.28;5072220;28;20064;-80
2022/06/19 06:36:59;;;;;;;6.13;3.92;;;;;;;33.98;29.99;100482.41;5072756;28;20047;-80
2022/06/19 06:39:27;;;;;;;7.85;4.13;;;;;;;34.15;29.69;100480.56;5072473;28;20070;-76
2022/06/19 06:41:57;;;;;;;6.68;3.75;;;;;;;34.15;29.25;100477.81;5072725;28;20047;-76
2022/06/19 06:44:25;;;;;;;6.75;3.70;;;;;;;33.51;29.98;100479.56;5072466;28;20492;-79
2022/06/19 06:46:54;;;;;;;5.32;3.58;;;;;;;34.18;29.56;100482.03;5072683;28;20052;-82
2022/06/19 06:49:22;;;;;;;6.00;3.42;;;;;;;34.44;28.36;100479.59;5072817;28;20551;-80
2022/06/19 06:51:50;;;;;;;6.68;3.33;;;;;;;34.35;28.93;100485.72;5075990;28;20052;-83
2022/06/19 06:54:19;;;;;;;5.43;3.22;;;;;;;34.38;29.02;100480.59;5075011;28;20049;-82
2022/06/19 06:56:47;;;;;;;5.15;3.22;;;;;;;34.29;28.63;100481.19;5076199;28;20041;-83
2022/06/19 06:59:17;;;;;;;6.47;2.97;;;;;;;34.15;27.75;100469.50;5074840;28;20099;-79
2022/06/19 07:01:45;;;;;;;6.20;3.03;;;;;;;32.58;29.99;100468.91;5074858;28;20131;-81
2022/06/19 07:04:13;;;;;;;6.80;2.97;;;;;;;32.07;31.31;100487.50;5075958;28;20052;-83
2022/06/19 07:06:41;;;;;;;4.00;2.60;;;;;;;31.86;30.66;100488.75;5075838;28;20413;-82
2022/06/19 07:09:10;;;;;;;5.20;2.83;;;;;;;31.92;31.15;100488.91;5075318;28;20431;-75
2022/06/19 07:11:40;;;;;;;5.30;2.70;;;;;;;31.56;30.96;100488.56;5077137;28;20131;-86
2022/06/19 07:14:08;;;;;;;6.70;2.72;;;;;;;31.48;30.72;100486.06;5070862;28;20061;-79
2022/06/19 07:16:38;;;;;;;10.05;2.70;;;;;;;31.51;30.80;100476.50;5055648;28;20047;-73
2022/06/19 07:19:06;;;;;;;4.82;3.13;;;;;;;31.32;31.40;100472.81;5057173;28;20139;-74
2022/06/19 07:21:34;;;;;;;5.20;3.00;;;;;;;30.89;32.32;100475.38;5075704;28;20074;-75
2022/06/19 07:24:03;;;;;;;5.03;2.53;;;;;;;30.90;31.43;100477.91;5075691;28;20074;-74
2022/06/19 07:26:31;;;;;;;5.70;2.40;;;;;;;30.67;30.84;100478.44;5075378;28;20048;-73
2022/06/19 07:29:00;;;;;;;6.20;2.35;;;;;;;30.51;31.58;100480.81;5075516;28;20048;-73
2022/06/19 07:31:35;;;;;;;4.82;2.50;;;;;;;30.15;31.71;100474.75;5064310;28;20044;-73
2022/06/19 07:34:06;;;;;;;5.80;2.65;;;;;;;30.02;31.77;100477.50;5063280;28;20135;-72
2022/06/19 07:36:37;;;;;;;5.93;2.78;;;;;;;30.00;32.51;100484.25;5072799;28;20481;-72
2022/06/19 07:39:06;;;;;;;6.25;3.00;;;;;;;30.07;32.28;100477.72;5077939;28;20040;-75
2022/06/19 07:41:34;;;;;;;7.60;3.30;;;;;;;30.07;32.56;100472.22;5084992;28;20108;-75
2022/06/19 07:44:02;;;;;;;5.22;3.10;;;;;;;29.94;32.48;100477.72;5077927;28;20036;-76
2022/06/19 07:46:30;;;;;;;5.53;2.80;;;;;;;29.53;33.20;100470.56;5075129;28;20060;-78
2022/06/19 07:51:46;;;;;;;4.60;2.92;;;;;;;29.63;33.48;100464.66;5074025;28;20385;-77
2022/06/19 07:54:14;;;;;;;5.07;2.70;;;;;;;29.33;34.83;100464.16;5072178;28;20046;-79
2022/06/19 07:56:42;;;;;;;4.78;2.75;;;;;;;29.51;34.09;100460.81;5074565;28;20050;-78
2022/06/19 07:59:11;;;;;;;5.00;2.53;;;;;;;29.61;32.86;100462.09;5074189;28;20051;-76
2022/06/19 08:01:39;;;;;;;6.38;2.53;;;;;;;29.38;34.11;100456.13;5072389;28;20059;-74
2022/06/19 08:04:27;;;;;;;8.55;2.90;;;;;;;29.47;33.91;100460.38;5074398;28;20127;-76
2022/06/19 08:06:57;;;;;;;7.78;3.00;;;;;;;29.42;33.02;100451.06;5074082;28;20044;-80
2022/06/19 08:09:25;;;;;;;5.88;2.78;;;;;;;29.27;32.98;100449.38;5074100;28;20041;-74
2022/06/19 08:11:53;;;;;;;7.72;2.97;;;;;;;29.27;32.21;100443.88;5075046;28;20033;-76
2022/06/19 08:14:21;;;;;;;6.53;2.90;;;;;;;29.14;32.23;100443.81;5074132;28;20494;-76
2022/06/19 08:16:50;;;;;;;5.15;2.42;;;;;;;29.15;33.07;100437.31;5074770;28;20053;-75
2022/06/19 08:19:21;;;;;;;5.22;2.55;;;;;;;29.01;32.32;100436.41;5074431;28;20041;-75
2022/06/19 08:21:49;;;;;;;4.78;2.78;;;;;;;29.16;32.46;100438.16;5074806;28;20052;-78
2022/06/19 08:24:19;;;;;;;4.53;2.40;;;;;;;29.13;32.00;100435.81;5074246;28;20048;-74
2022/06/19 08:26:50;;;;;;;5.70;2.38;;;;;;;29.04;31.47;100435.16;5074221;28;20040;-76
2022/06/19 08:29:18;;;;;;;7.45;2.50;;;;;;;29.01;31.11;100430.94;5074143;28;20066;-77
2022/06/19 08:31:47;;;;;;;3.40;2.40;;;;;;;29.03;30.98;100430.72;5072889;28;20049;-77
2022/06/19 08:34:15;;;;;;;5.80;2.70;;;;;;;28.95;31.82;100426.28;5072225;28;20080;-79
2022/06/19 08:36:44;;;;;;;4.55;2.40;;;;;;;28.86;31.82;100427.50;5073340;28;20048;-77
2022/06/19 08:39:15;;;;;;;4.78;2.60;;;;;;;28.98;31.76;100428.59;5074070;28;20442;-78
2022/06/19 08:42:21;;;;;;;5.47;2.80;;;;;;;29.04;31.35;100430.50;5072763;28;20045;-78
2022/06/19 08:45:00;;;;;;;5.65;2.72;;;;;;;28.75;32.04;100419.84;5067239;28;20391;-78
2022/06/19 08:47:42;;;;;;;6.18;2.83;;;;;;;28.98;32.96;100428.59;5072535;28;20063;-78
2022/06/19 08:50:24;;;;;;;5.88;2.50;;;;;;;29.26;32.41;100441.34;5074082;28;20086;-78
2022/06/19 08:53:05;;;;;;;5.10;3.20;;;;;;;29.15;32.19;100434.56;5074237;28;20051;-78
2022/06/19 08:55:41;;;;;;;8.27;4.50;;;;;;;29.19;31.75;100427.59;5073757;28;20119;-78
2022/06/19 08:58:20;;;;;;;8.32;3.88;;;;;;;29.08;32.24;100431.78;5073922;28;20040;-78
2022/06/19 09:00:55;;;;;;;5.07;2.63;;;;;;;29.20;32.35;100428.44;5073802;28;20045;-78
2022/06/19 09:05:36;;;;;;;8.63;2.67;;;;;;;29.16;31.36;100438.16;5073589;28;20075;-78
2022/06/19 09:06:28;;;;;;;3.10;2.13;;;;;;;29.12;31.01;100420.38;5073271;28;20044;-78
2022/06/19 09:09:18;;;;;;;4.03;2.40;;;;;;;29.13;31.58;100428.41;5073824;28;20079;-77
2022/06/19 09:12:15;;;;;;;4.72;2.60;;;;;;;29.21;31.41;100427.38;5073847;28;20051;-77
2022/06/19 09:14:53;;;;;;;4.03;2.60;;;;;;;29.18;31.18;100423.16;5073599;28;20070;-77
2022/06/19 09:17:28;;;;;;;5.72;2.30;;;;;;;29.14;31.29;100421.00;5073329;28;20055;-78
2022/06/19 09:20:07;;;;;;;4.65;2.50;;;;;;;28.99;31.39;100424.81;5072421;28;20071;-77
2022/06/19 09:23:12;;;;;;;5.55;2.70;;;;;;;29.13;32.40;100420.16;5073399;28;20064;-77
2022/06/19 09:25:47;;;;;;;3.55;2.30;;;;;;;29.28;31.47;100414.50;5061111;28;20049;-77
2022/06/19 09:28:25;;;;;;;5.10;2.70;;;;;;;29.35;31.90;100412.59;5073458;28;20041;-77
2022/06/19 09:31:02;;;;;;;5.13;2.70;;;;;;;29.29;32.33;100407.94;5072498;28;20140;-77
2022/06/19 09:33:37;;;;;;;5.20;2.42;;;;;;;29.29;32.03;100402.44;5072986;28;20044;-77
2022/06/19 09:36:10;;;;;;;4.45;2.30;;;;;;;29.33;32.09;100399.06;5072288;28;20482;-77
2022/06/19 09:38:45;;;;;;;4.30;2.60;;;;;;;29.48;31.26;100401.63;5072895;28;20052;-77
2022/06/19 09:41:21;;;;;;;5.45;2.63;;;;;;;29.47;31.71;100397.16;5073382;28;20068;-77
2022/06/19 09:43:54;;;;;;;4.38;2.55;;;;;;;29.69;31.58;100402.47;5073537;28;20398;-77
2022/06/19 09:46:31;;;;;;;7.10;2.50;;;;;;;29.48;31.94;100406.25;5072774;28;20108;-78
2022/06/19 09:49:08;;;;;;;6.30;2.60;;;;;;;29.55;32.34;100397.00;5073242;28;20041;-78
2022/06/19 09:51:41;;;;;;;5.20;2.63;;;;;;;29.13;32.33;100380.88;5072833;28;20048;-77
2022/06/19 09:54:13;;;;;;;6.53;3.05;;;;;;;29.05;32.63;100392.94;5073195;28;20124;-77
2022/06/19 09:56:50;;;;;;;5.33;3.37;;;;;;;29.26;32.16;100383.66;5072760;28;20433;-78
2022/06/19 09:59:23;;;;;;;6.45;2.92;;;;;;;29.27;32.59;100377.94;5072997;28;20500;-78
2022/06/19 10:01:57;;;;;;;5.45;3.00;;;;;;;29.36;31.79;100382.16;5073178;28;20126;-78
2022/06/19 10:04:36;;;;;;;6.57;2.65;;;;;;;29.39;32.18;100375.41;5071543;28;20071;-78
2022/06/19 10:07:10;;;;;;;5.28;2.50;;;;;;;29.54;32.06;100375.22;5072825;28;20044;-77
2022/06/19 10:09:46;;;;;;;6.57;2.58;;;;;;;29.52;31.13;100369.91;5072855;28;20049;-78
2022/06/19 10:12:27;;;;;;;7.20;2.70;;;;;;;29.58;30.48;100368.22;5073061;28;20101;-77
2022/06/19 10:15:02;;;;;;;5.53;2.33;;;;;;;29.63;31.04;100376.69;5073284;28;20049;-76
2022/06/19 10:17:47;;;;;;;4.97;2.30;;;;;;;29.78;30.65;100368.19;5072846;28;20044;-78
2022/06/19 10:20:19;;;;;;;6.13;2.85;;;;;;;29.70;30.84;100371.16;5072537;28;20053;-76
2022/06/19 10:22:57;;;;;;;3.97;2.20;;;;;;;29.74;30.56;100366.94;5074267;28;20123;-78
2022/06/19 10:25:55;;;;;;;4.50;1.92;;;;;;;29.68;30.55;100362.28;5077655;28;20293;-79
2022/06/19 10:28:46;;;;;;;3.25;1.90;;;;;;;29.74;30.66;100350.44;5074287;28;20076;-78
2022/06/19 10:31:27;;;;;;;4.53;2.40;;;;;;;29.84;29.03;100359.09;5076667;28;20508;-76
2022/06/19 10:34:08;;;;;;;3.65;2.00;;;;;;;29.86;29.29;100355.06;5076854;28;20477;-76
2022/06/19 10:36:43;;;;;;;3.70;2.00;;;;;;;29.79;30.05;100336.88;5076319;28;20482;-77
2022/06/19 10:39:36;;;;;;;4.55;2.08;;;;;;;29.89;29.40;100342.78;5076687;28;20125;-76
2022/06/19 10:42:16;;;;;;;4.50;2.22;;;;;;;29.89;29.88;100332.63;5076403;28;20040;-77
2022/06/19 10:45:05;;;;;;;4.63;2.20;;;;;;;29.94;30.05;100332.00;5076063;28;20049;-77
2022/06/19 10:47:51;;;;;;;4.65;2.17;;;;;;;30.02;29.53;100331.75;5075776;28;20045;-77
2022/06/19 10:50:32;;;;;;;4.65;2.28;;;;;;;29.99;30.14;100326.66;5076278;28;20454;-76
2022/06/19 10:53:13;;;;;;;3.58;2.10;;;;;;;29.89;29.68;100331.78;5076561;28;20045;-76
2022/06/19 10:55:47;;;;;;;4.43;2.22;;;;;;;29.85;30.34;100325.03;5076080;28;20448;-76
2022/06/19 10:58:18;;;;;;;6.07;2.30;;;;;;;30.02;30.01;100320.75;5075988;28;20040;-77
2022/06/19 11:00:52;;;;;;;4.93;2.10;;;;;;;30.08;30.00;100314.41;5076292;28;20036;-82
2022/06/19 11:06:25;;;;;;;4.28;2.10;;;;;;;30.06;28.97;100321.16;5072568;28;20047;-79
2022/06/19 11:08:58;;;;;;;3.85;1.90;;;;;;;30.01;29.10;100319.03;5075777;28;20471;-79
2022/06/19 11:11:28;;;;;;;3.90;2.10;;;;;;;29.73;29.00;100321.28;5074438;28;20043;-80
2022/06/19 11:14:09;;;;;;;4.82;2.35;;;;;;;30.01;29.42;100308.03;5083999;28;20047;-80
2022/06/19 11:16:55;;;;;;;4.68;2.25;;;;;;;30.17;29.10;100307.59;5083649;28;20131;-80
2022/06/19 11:19:36;;;;;;;4.72;2.00;;;;;;;30.28;28.42;100313.47;5072576;28;20045;-81
2022/06/19 11:22:33;;;;;;;3.58;1.90;;;;;;;30.26;28.96;100310.94;5073604;28;20045;-78
2022/06/19 11:25:25;;;;;;;7.70;1.95;;;;;;;30.16;28.91;100314.16;5071876;28;20064;-83
2022/06/19 11:27:57;;;;;;;4.27;2.13;;;;;;;29.98;28.78;100300.25;5074499;28;20040;-85
2022/06/19 11:30:28;;;;;;;4.97;2.03;;;;;;;30.15;28.65;100295.13;5073311;28;20281;-81
2022/06/19 11:32:56;;;;;;;4.63;2.38;;;;;;;30.23;28.09;100288.53;5075272;28;20417;-87
2022/06/19 11:35:25;;;;;;;4.28;2.00;;;;;;;30.28;26.99;100288.69;5075056;28;20393;-78
2022/06/19 11:37:58;;;;;;;3.28;1.90;;;;;;;30.17;27.56;100288.34;5074795;28;20037;-74
2022/06/19 11:40:30;;;;;;;;;;;;;;;30.20;27.20;100287.03;5075413;28;20051;-74
2022/06/19 11:43:00;;;;;;;4.95;2.00;;;;;;;30.20;26.46;100274.13;5075178;28;19928;-74
2022/06/19 11:45:31;;;;;;;5.32;2.05;;;;;;;30.05;26.91;100264.47;5074608;28;20058;-75
2022/06/19 11:48:02;;;;;;;6.00;2.38;;;;;;;30.18;27.32;100268.00;5074571;28;20045;-74
2022/06/19 11:50:48;;;;;;;6.07;2.28;;;;;;;30.31;27.32;100258.84;5074597;28;20044;-75
2022/06/19 11:53:22;;;;;;;3.45;2.13;;;;;;;30.41;27.70;100274.88;5072323;28;20044;-77